Terminal Aerodrome Forecast
Issued by NWS

Home | Current Version | Previous Version | Graphics & Text | Print | Product List | Glossary On
Versions: 1 2 3 4 5 6 7 8 9 10 11
289
FTUS43 KGRB 222334
TAFAUW
TAF
KAUW 222334Z 2300/2324 27010KT P6SM SKC
     FM230200 24005KT P6SM SKC
     FM231300 29007KT P6SM BKN250
     FM231900 12010KT P6SM SCT035 BKN070
      TEMPO 2322/2324 BKN035=

USA.gov is the U.S. government's official web portal to all federal, state and local government web resources and services.